Time;durP1;ratioP1;P1;durP2;ratioP2;P2;SDS_P1;SDS_P2;PMS_P1;PMS_P2;Temp;Humidity;BMP_temperature;BMP_pressure;BME280_temperature;BME280_humidity;BME280_pressure;Samples;Min_cycle;Max_cycle;Signal;HPM_P1;HPM_P2
2022/03/07 00:01:26;;;;;;;18.75;9.65;;;2.50;99.90;;;;;;5033007;28;20052;-69
2022/03/07 00:04:30;;;;;;;17.65;9.10;;;2.60;99.90;;;;;;5033099;28;20052;-68
2022/03/07 00:07:35;;;;;;;21.30;11.25;;;2.60;99.90;;;;;;5033050;28;20499;-69
2022/03/07 00:10:39;;;;;;;21.80;10.25;;;2.60;99.90;;;;;;5032360;28;20053;-69
2022/03/07 00:13:43;;;;;;;20.05;9.93;;;2.50;99.90;;;;;;5033027;28;20048;-69
2022/03/07 00:16:48;;;;;;;17.65;8.93;;;2.40;99.90;;;;;;5032048;28;20052;-69
2022/03/07 00:19:52;;;;;;;21.58;10.32;;;2.40;99.90;;;;;;5032554;28;20215;-68
2022/03/07 00:22:56;;;;;;;17.88;9.30;;;2.40;99.90;;;;;;5032932;28;20136;-69
2022/03/07 00:26:00;;;;;;;18.15;8.95;;;2.30;99.90;;;;;;5032995;28;20409;-68
2022/03/07 00:29:04;;;;;;;15.60;8.48;;;2.30;99.90;;;;;;5032657;28;20044;-69
2022/03/07 00:32:08;;;;;;;15.05;7.90;;;2.30;99.90;;;;;;5031431;28;20377;-68
2022/03/07 00:35:14;;;;;;;18.23;10.23;;;2.40;99.90;;;;;;5031484;28;20048;-68
2022/03/07 00:38:19;;;;;;;16.48;8.23;;;2.40;99.90;;;;;;5032223;28;20396;-68
2022/03/07 00:41:24;;;;;;;18.10;9.15;;;2.40;99.90;;;;;;5031673;28;20534;-68
2022/03/07 00:44:29;;;;;;;18.77;9.25;;;2.40;99.90;;;;;;5032367;28;20508;-69
2022/03/07 00:47:33;;;;;;;17.45;9.63;;;2.40;99.90;;;;;;5032393;28;20068;-69
2022/03/07 00:50:42;;;;;;;17.70;7.88;;;2.30;99.90;;;;;;5031513;28;20575;-68
2022/03/07 00:53:46;;;;;;;17.83;8.07;;;2.20;99.90;;;;;;5032128;28;20036;-69
2022/03/07 00:56:50;;;;;;;18.88;8.27;;;2.20;99.90;;;;;;5030717;28;20052;-68
2022/03/07 00:59:55;;;;;;;19.30;11.07;;;2.20;99.90;;;;;;5032108;28;20048;-69
2022/03/07 01:02:59;;;;;;;17.00;8.82;;;2.20;99.90;;;;;;5031227;28;20048;-67
2022/03/07 01:06:05;;;;;;;15.45;8.65;;;2.10;99.90;;;;;;5031521;28;20064;-69
2022/03/07 01:09:10;;;;;;;14.82;8.60;;;2.10;99.90;;;;;;5031805;28;20045;-69
2022/03/07 01:12:14;;;;;;;22.45;9.73;;;2.10;99.90;;;;;;5031320;28;20049;-68
2022/03/07 01:15:19;;;;;;;15.13;8.25;;;2.10;99.90;;;;;;5031852;28;20313;-68
2022/03/07 01:18:23;;;;;;;16.25;8.63;;;2.10;99.90;;;;;;5031743;28;20049;-69
2022/03/07 01:21:28;;;;;;;14.70;8.05;;;2.20;99.90;;;;;;5030091;28;20412;-69
2022/03/07 01:24:32;;;;;;;17.30;8.57;;;2.20;99.90;;;;;;5031823;28;20060;-69
2022/03/07 01:27:36;;;;;;;17.70;9.27;;;2.30;99.90;;;;;;5031222;28;20051;-69
2022/03/07 01:30:42;;;;;;;21.77;9.30;;;2.30;99.90;;;;;;5030661;28;20041;-69
2022/03/07 01:33:46;;;;;;;18.80;8.75;;;2.40;99.90;;;;;;5030808;28;20049;-68
2022/03/07 01:36:51;;;;;;;19.00;9.38;;;2.40;99.90;;;;;;5030413;28;20044;-69
2022/03/07 01:39:55;;;;;;;23.27;10.45;;;2.50;99.90;;;;;;5031123;28;20060;-69
2022/03/07 01:42:59;;;;;;;20.38;9.10;;;2.50;99.90;;;;;;5031078;28;20052;-69
2022/03/07 01:46:03;;;;;;;16.58;8.75;;;2.50;99.90;;;;;;5019018;28;20389;-69
2022/03/07 01:49:07;;;;;;;17.65;9.23;;;2.60;99.90;;;;;;5031077;28;20519;-69
2022/03/07 01:52:13;;;;;;;18.35;9.25;;;2.60;99.90;;;;;;5029603;28;20044;-69
2022/03/07 01:55:19;;;;;;;19.15;8.93;;;2.60;99.90;;;;;;5030324;28;20044;-69
2022/03/07 01:58:36;;;;;;;22.52;9.18;;;2.60;99.90;;;;;;5030384;28;20048;-69
2022/03/07 02:01:41;;;;;;;18.88;8.63;;;2.60;99.90;;;;;;5029221;28;20404;-69
2022/03/07 02:04:45;;;;;;;18.88;8.07;;;2.60;99.90;;;;;;5031299;28;20044;-68
2022/03/07 02:07:50;;;;;;;21.38;9.05;;;2.60;99.90;;;;;;5029883;28;20051;-69
2022/03/07 02:10:54;;;;;;;19.05;8.50;;;2.60;99.90;;;;;;5018084;28;20768;-68
2022/03/07 02:14:14;;;;;;;17.13;9.18;;;2.60;99.90;;;;;;5029946;28;20318;-69
2022/03/07 02:17:20;;;;;;;16.73;9.03;;;2.70;99.90;;;;;;5029235;28;20401;-69
2022/03/07 02:20:24;;;;;;;18.02;9.25;;;2.70;99.90;;;;;;5029765;28;20485;-69
2022/03/07 02:23:29;;;;;;;19.27;8.75;;;2.70;99.90;;;;;;5030521;28;20048;-69
2022/03/07 02:26:33;;;;;;;16.95;8.75;;;2.80;99.90;;;;;;5029714;28;20052;-69
2022/03/07 02:29:38;;;;;;;15.73;8.70;;;2.80;99.90;;;;;;5029541;28;20610;-69
2022/03/07 02:32:46;;;;;;;19.67;8.95;;;2.70;99.90;;;;;;5028836;28;20040;-69
2022/03/07 02:35:49;;;;;;;17.35;9.63;;;2.70;99.90;;;;;;5029760;28;20044;-69
2022/03/07 02:38:55;;;;;;;16.75;9.60;;;2.80;99.90;;;;;;5028858;28;20068;-68
2022/03/07 02:42:00;;;;;;;20.70;9.30;;;2.80;99.90;;;;;;5028776;28;20523;-69
2022/03/07 02:45:07;;;;;;;22.38;10.15;;;2.80;99.90;;;;;;5029546;28;20063;-68
2022/03/07 02:48:11;;;;;;;19.10;10.77;;;2.80;99.90;;;;;;5029238;28;20511;-69
2022/03/07 02:51:16;;;;;;;17.60;9.57;;;2.90;99.90;;;;;;5028559;28;20499;-69
2022/03/07 02:54:21;;;;;;;17.73;8.95;;;2.90;99.90;;;;;;5029523;28;20584;-69
2022/03/07 02:57:25;;;;;;;19.90;10.75;;;2.90;99.90;;;;;;5030076;28;20041;-69
2022/03/07 03:00:30;;;;;;;17.50;9.43;;;3.00;99.90;;;;;;5030014;28;20048;-69
2022/03/07 03:03:35;;;;;;;19.48;9.55;;;3.00;99.90;;;;;;5030303;28;20056;-69
2022/03/07 03:06:39;;;;;;;19.48;9.75;;;3.00;99.90;;;;;;5030000;28;20057;-69
2022/03/07 03:09:45;;;;;;;22.00;9.93;;;3.00;99.90;;;;;;5030072;28;20495;-69
2022/03/07 03:12:49;;;;;;;19.02;9.40;;;3.00;99.90;;;;;;5029500;28;20048;-69
2022/03/07 03:15:54;;;;;;;17.65;9.48;;;3.10;99.90;;;;;;5030188;28;20064;-69
2022/03/07 03:18:58;;;;;;;17.48;9.95;;;3.10;99.90;;;;;;5030077;28;20064;-69
2022/03/07 03:22:02;;;;;;;17.55;9.43;;;3.10;99.90;;;;;;5029413;28;20404;-68
2022/03/07 03:25:08;;;;;;;21.45;9.60;;;3.20;99.90;;;;;;5030297;28;20052;-69
2022/03/07 03:28:12;;;;;;;19.13;10.00;;;3.20;99.90;;;;;;5030158;28;20044;-69
2022/03/07 03:31:16;;;;;;;20.13;10.05;;;3.20;99.90;;;;;;5033646;28;20519;-69
2022/03/07 03:34:20;;;;;;;15.35;8.98;;;3.10;99.90;;;;;;5034049;28;20049;-67
2022/03/07 03:37:24;;;;;;;18.00;9.90;;;3.10;99.90;;;;;;5033628;28;20064;-68
2022/03/07 03:40:28;;;;;;;19.80;9.90;;;3.00;99.90;;;;;;5033472;28;20052;-69
2022/03/07 03:43:32;;;;;;;17.60;9.68;;;3.00;99.90;;;;;;5033206;28;20052;-69
2022/03/07 03:46:37;;;;;;;18.23;9.77;;;2.90;99.90;;;;;;5033582;28;20052;-68
2022/03/07 03:49:41;;;;;;;20.23;9.90;;;2.90;99.90;;;;;;5033690;28;20049;-68
2022/03/07 03:52:45;;;;;;;17.00;9.50;;;2.80;99.90;;;;;;5032800;28;20049;-68
2022/03/07 03:55:49;;;;;;;19.40;10.02;;;2.80;99.90;;;;;;5033359;28;20036;-68
2022/03/07 03:58:53;;;;;;;19.65;10.25;;;2.70;99.90;;;;;;5033238;28;20412;-68
2022/03/07 04:01:57;;;;;;;18.05;10.93;;;2.60;99.90;;;;;;5032566;28;20119;-68
2022/03/07 04:05:01;;;;;;;18.38;9.65;;;2.50;99.90;;;;;;5033017;28;20037;-68
2022/03/07 04:08:06;;;;;;;16.80;9.98;;;2.40;99.90;;;;;;5033301;28;20602;-68
2022/03/07 04:11:09;;;;;;;20.27;11.77;;;2.30;99.90;;;;;;5032487;28;20053;-68
2022/03/07 04:14:14;;;;;;;21.52;10.02;;;2.30;99.90;;;;;;5032838;28;20385;-69
2022/03/07 04:17:18;;;;;;;19.00;10.05;;;2.30;99.90;;;;;;5032917;28;20064;-68
2022/03/07 04:20:22;;;;;;;21.27;11.73;;;2.20;99.90;;;;;;5032652;28;20058;-68
2022/03/07 04:23:26;;;;;;;21.50;10.98;;;2.20;99.90;;;;;;5032721;28;20052;-68
2022/03/07 04:26:30;;;;;;;22.88;10.80;;;2.30;99.90;;;;;;5032936;28;20052;-68
2022/03/07 04:29:36;;;;;;;20.17;10.73;;;2.30;99.90;;;;;;5032437;28;20401;-68
2022/03/07 04:32:40;;;;;;;22.20;11.30;;;2.20;99.90;;;;;;5032147;28;20045;-69
2022/03/07 04:35:44;;;;;;;21.85;10.98;;;2.10;99.90;;;;;;5032085;28;20064;-68
2022/03/07 04:38:48;;;;;;;21.35;11.38;;;2.10;99.90;;;;;;5032145;28;20048;-68
2022/03/07 04:41:52;;;;;;;21.60;10.90;;;2.00;99.90;;;;;;5031458;28;20056;-68
2022/03/07 04:44:56;;;;;;;21.88;11.55;;;2.00;99.90;;;;;;5032534;28;20045;-68
2022/03/07 04:48:00;;;;;;;22.90;12.10;;;2.00;99.90;;;;;;5032439;28;20056;-68
2022/03/07 04:51:06;;;;;;;23.63;11.80;;;2.00;99.90;;;;;;5032016;28;20060;-68
2022/03/07 04:54:09;;;;;;;21.50;10.93;;;2.00;99.90;;;;;;5031291;28;20052;-68
2022/03/07 04:57:13;;;;;;;24.95;12.00;;;2.00;99.90;;;;;;5032366;28;20044;-68
2022/03/07 05:00:17;;;;;;;23.42;11.52;;;2.00;99.90;;;;;;5031756;28;20060;-68
2022/03/07 05:03:25;;;;;;;23.65;11.57;;;2.00;99.90;;;;;;5031802;28;20392;-68
2022/03/07 05:06:29;;;;;;;27.05;11.88;;;1.90;99.90;;;;;;5032110;28;20065;-69
2022/03/07 05:09:34;;;;;;;19.85;10.82;;;1.90;99.90;;;;;;5031969;28;20048;-68
2022/03/07 05:12:38;;;;;;;21.90;11.20;;;1.80;99.90;;;;;;5031621;28;20048;-68
2022/03/07 05:15:41;;;;;;;21.60;11.95;;;1.70;99.90;;;;;;5031902;28;20048;-68
2022/03/07 05:18:45;;;;;;;21.00;11.32;;;1.70;99.90;;;;;;5031936;28;20431;-69
2022/03/07 05:21:49;;;;;;;20.10;11.38;;;1.60;99.90;;;;;;5031298;28;20048;-68
2022/03/07 05:24:53;;;;;;;20.13;11.65;;;1.50;99.90;;;;;;5030901;28;20064;-68
2022/03/07 05:27:57;;;;;;;20.70;11.55;;;1.50;99.90;;;;;;5031329;28;20060;-68
2022/03/07 05:31:01;;;;;;;20.73;11.60;;;1.40;99.90;;;;;;5030766;28;20048;-68
2022/03/07 05:34:05;;;;;;;27.75;11.93;;;1.40;99.90;;;;;;5031308;28;20048;-69
2022/03/07 05:37:09;;;;;;;23.40;11.60;;;1.40;99.90;;;;;;5031435;28;20387;-68
2022/03/07 05:40:15;;;;;;;21.10;11.82;;;1.40;99.90;;;;;;5030980;28;20068;-68
2022/03/07 05:43:19;;;;;;;25.63;12.45;;;1.40;99.90;;;;;;5030833;28;20040;-68
2022/03/07 05:46:23;;;;;;;23.08;12.00;;;1.40;99.90;;;;;;5031180;28;20105;-69
2022/03/07 05:49:27;;;;;;;24.98;12.55;;;1.40;99.90;;;;;;5031103;28;20060;-68
2022/03/07 05:52:31;;;;;;;23.92;11.90;;;1.40;99.90;;;;;;5030103;28;20052;-69
2022/03/07 05:55:35;;;;;;;22.58;12.00;;;1.40;99.90;;;;;;5029877;28;20388;-69
2022/03/07 05:58:39;;;;;;;19.30;11.23;;;1.50;99.90;;;;;;5030917;28;20045;-68
2022/03/07 06:01:43;;;;;;;22.20;12.00;;;1.50;99.90;;;;;;5030421;28;20056;-68
2022/03/07 06:04:47;;;;;;;24.80;12.50;;;1.60;99.90;;;;;;5030992;28;20045;-68
2022/03/07 06:07:51;;;;;;;22.80;10.60;;;1.60;99.90;;;;;;5030900;28;20044;-69
2022/03/07 06:10:55;;;;;;;20.83;11.45;;;1.70;99.90;;;;;;5029902;28;20056;-69
2022/03/07 06:13:59;;;;;;;25.55;12.07;;;1.70;99.90;;;;;;5030612;28;20040;-68
2022/03/07 06:17:04;;;;;;;22.08;11.63;;;1.80;99.90;;;;;;5030612;28;20056;-68
2022/03/07 06:20:08;;;;;;;24.67;11.98;;;1.90;99.90;;;;;;5030628;28;20107;-68
2022/03/07 06:23:13;;;;;;;23.08;11.50;;;2.00;99.90;;;;;;5030503;28;20113;-69
2022/03/07 06:26:17;;;;;;;23.98;12.57;;;2.10;99.90;;;;;;5030641;28;20111;-68
2022/03/07 06:29:21;;;;;;;22.42;11.82;;;2.20;99.90;;;;;;5030828;28;20049;-68
2022/03/07 06:32:26;;;;;;;21.50;11.65;;;2.30;99.90;;;;;;5030612;28;20040;-68
2022/03/07 06:35:30;;;;;;;22.38;10.70;;;3.00;99.90;;;;;;5030285;28;20052;-68
2022/03/07 06:38:35;;;;;;;19.45;10.02;;;5.10;99.90;;;;;;5030215;28;20503;-68
2022/03/07 06:41:39;;;;;;;19.08;10.30;;;7.30;99.90;;;;;;5029839;28;20036;-68
2022/03/07 06:44:43;;;;;;;20.70;10.48;;;9.30;99.90;;;;;;5030207;28;20523;-69
2022/03/07 06:47:47;;;;;;;14.70;9.90;;;11.00;98.30;;;;;;5030905;28;20044;-69
2022/03/07 06:50:51;;;;;;;15.95;9.98;;;12.70;94.30;;;;;;5030421;28;20044;-69
2022/03/07 06:53:55;;;;;;;14.32;9.20;;;12.60;90.90;;;;;;5030671;28;20044;-69
2022/03/07 06:56:59;;;;;;;13.48;8.82;;;12.80;90.10;;;;;;5029559;28;20068;-69
2022/03/07 07:00:08;;;;;;;13.60;9.45;;;14.10;88.40;;;;;;5029214;28;20056;-69
2022/03/07 07:03:12;;;;;;;16.70;10.25;;;15.20;84.50;;;;;;5023422;28;20052;-70
2022/03/07 07:06:16;;;;;;;12.70;9.10;;;16.10;81.80;;;;;;5032654;28;20064;-69
2022/03/07 07:09:20;;;;;;;13.63;9.60;;;16.40;81.80;;;;;;5034341;28;20052;-69
2022/03/07 07:12:24;;;;;;;14.93;10.13;;;15.90;79.10;;;;;;5032905;28;20036;-69
2022/03/07 07:15:28;;;;;;;16.27;10.77;;;13.90;80.90;;;;;;5033878;28;20045;-69
2022/03/07 07:18:32;;;;;;;15.32;10.40;;;12.10;84.60;;;;;;5033080;28;20356;-69
2022/03/07 07:21:36;;;;;;;18.33;10.52;;;10.40;86.70;;;;;;5028304;28;20036;-69
2022/03/07 07:24:41;;;;;;;17.75;10.90;;;9.10;90.40;;;;;;5035978;28;20041;-68
2022/03/07 07:27:45;;;;;;;18.30;11.27;;;8.20;92.30;;;;;;5029402;28;20041;-69
2022/03/07 07:30:50;;;;;;;18.20;11.80;;;7.70;93.60;;;;;;5031508;28;20080;-69
2022/03/07 07:33:55;;;;;;;19.83;10.93;;;7.40;94.90;;;;;;5030363;28;20117;-69
2022/03/07 07:36:59;;;;;;;24.48;12.52;;;7.10;96.00;;;;;;5032342;28;20032;-68
2022/03/07 07:40:05;;;;;;;20.60;12.23;;;6.90;97.20;;;;;;5030787;28;20040;-69
2022/03/07 07:43:09;;;;;;;19.95;11.43;;;6.70;97.70;;;;;;5035001;28;20040;-68
2022/03/07 07:46:14;;;;;;;19.70;12.02;;;6.60;98.00;;;;;;5032139;28;20091;-68
2022/03/07 07:49:18;;;;;;;18.08;10.23;;;6.90;98.50;;;;;;5029222;28;20515;-69
2022/03/07 07:52:23;;;;;;;18.73;11.10;;;8.40;97.50;;;;;;5033228;28;20045;-69
2022/03/07 07:55:28;;;;;;;19.67;11.85;;;9.30;96.40;;;;;;5033647;28;20044;-69
2022/03/07 07:58:32;;;;;;;19.20;11.85;;;9.90;94.70;;;;;;5031431;28;20112;-68
2022/03/07 08:01:38;;;;;;;17.70;10.38;;;11.00;93.70;;;;;;5023095;28;20040;-69
2022/03/07 08:04:42;;;;;;;12.93;9.20;;;12.90;91.70;;;;;;5032483;28;20384;-69
2022/03/07 08:07:47;;;;;;;19.08;10.38;;;15.00;89.70;;;;;;5027617;28;20091;-69
2022/03/07 08:10:51;;;;;;;13.48;9.50;;;16.80;83.80;;;;;;5028816;28;20048;-69
2022/03/07 08:13:55;;;;;;;15.73;10.15;;;17.20;79.10;;;;;;5031799;28;20403;-70
2022/03/07 08:16:59;;;;;;;16.65;10.98;;;18.20;77.60;;;;;;5022654;28;20511;-69
2022/03/07 08:20:05;;;;;;;17.30;10.25;;;18.70;74.90;;;;;;5036581;28;20057;-70
2022/03/07 08:23:09;;;;;;;14.43;10.23;;;20.10;74.10;;;;;;5029758;28;20044;-70
2022/03/07 08:26:13;;;;;;;11.25;8.45;;;20.80;69.10;;;;;;5031629;28;20048;-70
2022/03/07 08:29:18;;;;;;;11.60;9.15;;;21.70;64.20;;;;;;5030532;28;20416;-69
2022/03/07 08:32:23;;;;;;;9.48;8.02;;;21.80;63.20;;;;;;5026880;28;20037;-69
2022/03/07 08:35:27;;;;;;;9.63;7.95;;;23.00;61.70;;;;;;5030438;28;20064;-70
2022/03/07 08:38:31;;;;;;;11.93;8.13;;;24.20;58.90;;;;;;5029550;28;20056;-70
2022/03/07 08:41:35;;;;;;;10.35;8.65;;;25.00;57.50;;;;;;5028284;28;20052;-68
2022/03/07 08:44:39;;;;;;;10.60;7.70;;;26.00;55.80;;;;;;5021307;28;20036;-68
2022/03/07 08:47:43;;;;;;;9.35;7.68;;;25.70;51.80;;;;;;5029208;28;20622;-68
2022/03/07 08:50:48;;;;;;;9.45;7.68;;;26.00;52.10;;;;;;5026327;28;20507;-67
2022/03/07 08:53:53;;;;;;;9.10;7.70;;;25.60;48.20;;;;;;5026174;28;20044;-68
2022/03/07 08:56:57;;;;;;;9.32;7.55;;;21.80;52.30;;;;;;5025199;28;20348;-68
2022/03/07 09:00:01;;;;;;;9.63;7.40;;;24.10;51.50;;;;;;5028820;28;20068;-70
2022/03/07 09:03:05;;;;;;;8.15;7.20;;;25.00;50.20;;;;;;5026702;28;20056;-70
2022/03/07 09:06:09;;;;;;;8.88;7.22;;;25.70;49.60;;;;;;5027863;28;20048;-67
2022/03/07 09:09:14;;;;;;;7.70;6.90;;;27.00;49.80;;;;;;5027902;28;20032;-68
2022/03/07 09:12:18;;;;;;;8.27;7.40;;;27.80;48.40;;;;;;5026087;28;20044;-67
2022/03/07 09:15:22;;;;;;;9.40;8.02;;;27.80;46.80;;;;;;5024843;28;20056;-67
2022/03/07 09:18:27;;;;;;;9.18;8.15;;;28.40;47.40;;;;;;5028797;28;20493;-68
2022/03/07 09:21:31;;;;;;;10.95;8.27;;;24.40;47.50;;;;;;5025471;28;20049;-66
2022/03/07 09:24:35;;;;;;;12.00;9.00;;;22.60;49.70;;;;;;5026371;28;20040;-66
2022/03/07 09:27:42;;;;;;;11.13;8.30;;;17.30;54.00;;;;;;5029216;28;20048;-65
2022/03/07 09:30:46;;;;;;;10.85;7.97;;;19.10;54.00;;;;;;5027592;28;20068;-66
2022/03/07 09:33:50;;;;;;;11.38;8.68;;;21.30;53.10;;;;;;5031595;28;20049;-66
2022/03/07 09:36:54;;;;;;;9.57;8.25;;;23.50;50.40;;;;;;5025551;28;20037;-66
2022/03/07 09:39:59;;;;;;;11.00;8.90;;;24.90;49.00;;;;;;5026216;28;20049;-66
2022/03/07 09:43:03;;;;;;;12.00;8.88;;;23.80;48.60;;;;;;5029473;28;20045;-64
2022/03/07 09:46:08;;;;;;;9.48;8.48;;;23.70;49.50;;;;;;5024059;28;20044;-66
2022/03/07 09:49:12;;;;;;;11.05;8.25;;;24.10;49.10;;;;;;5026271;28;20048;-66
2022/03/07 09:52:16;;;;;;;10.38;8.45;;;24.60;48.60;;;;;;5024355;28;20036;-65
2022/03/07 09:55:21;;;;;;;10.02;8.27;;;25.30;49.00;;;;;;5028531;28;20112;-66
2022/03/07 09:58:25;;;;;;;13.00;8.40;;;23.40;48.30;;;;;;5023829;28;20052;-65
2022/03/07 10:01:29;;;;;;;13.60;9.95;;;22.50;49.70;;;;;;5025324;28;20044;-66
2022/03/07 10:04:44;;;;;;;12.82;9.38;;;21.40;50.90;;;;;;5025049;28;20040;-66
2022/03/07 10:07:48;;;;;;;12.68;9.90;;;21.00;51.00;;;;;;5024187;28;20061;-65
2022/03/07 10:10:54;;;;;;;11.73;9.27;;;19.40;53.10;;;;;;5025477;28;20056;-65
2022/03/07 10:14:04;;;;;;;13.05;9.57;;;18.60;52.60;;;;;;5027199;28;20052;-65
2022/03/07 10:17:18;;;;;;;13.60;10.32;;;18.90;54.60;;;;;;5021727;28;20056;-65
2022/03/07 10:20:24;;;;;;;13.10;9.85;;;18.90;53.60;;;;;;5024791;28;20487;-65
2022/03/07 10:23:29;;;;;;;13.63;10.45;;;18.30;54.90;;;;;;5035450;28;20045;-66
2022/03/07 10:26:35;;;;;;;15.27;9.95;;;18.80;54.90;;;;;;5026707;28;20044;-66
2022/03/07 10:29:46;;;;;;;14.55;10.18;;;18.40;54.30;;;;;;5027177;28;20123;-66
2022/03/07 10:32:55;;;;;;;;;;;18.30;54.80;;;;;;5026271;28;20049;-66
2022/03/07 10:35:58;;;;;;;13.02;10.38;;;17.90;54.20;;;;;;5026453;28;19913;-64
2022/03/07 10:39:09;;;;;;;13.38;9.20;;;17.30;56.20;;;;;;5022152;28;20061;-66
2022/03/07 10:42:17;;;;;;;12.55;9.82;;;19.00;54.90;;;;;;5026627;28;20033;-66
2022/03/07 10:45:23;;;;;;;14.88;10.23;;;18.50;55.00;;;;;;5026594;28;20056;-65
2022/03/07 10:48:39;;;;;;;19.30;9.50;;;17.60;55.50;;;;;;5028963;28;20099;-65
2022/03/07 10:51:55;;;;;;;13.65;9.27;;;17.70;55.10;;;;;;5022058;28;20048;-65
2022/03/07 10:54:59;;;;;;;14.95;8.68;;;18.70;53.60;;;;;;5027843;28;20052;-65
2022/03/07 10:58:05;;;;;;;12.63;9.57;;;18.50;54.50;;;;;;5025292;28;20036;-65
2022/03/07 11:01:09;;;;;;;11.93;8.68;;;19.40;54.10;;;;;;5029862;28;20056;-66
2022/03/07 11:04:21;;;;;;;13.35;9.13;;;21.10;52.00;;;;;;5029606;28;20121;-65
2022/03/07 11:07:26;;;;;;;;;;;21.50;51.70;;;;;;5024467;28;20044;-66
2022/03/07 11:10:30;;;;;;;11.95;8.65;;;21.30;50.70;;;;;;5025522;28;19913;-66
2022/03/07 11:13:34;;;;;;;10.43;8.32;;;20.80;51.50;;;;;;5024577;28;20117;-60
2022/03/07 11:16:39;;;;;;;12.30;9.18;;;19.90;50.70;;;;;;5024970;28;20674;-59
2022/03/07 11:19:46;;;;;;;16.23;9.70;;;18.60;52.70;;;;;;5026264;28;20040;-60
2022/03/07 11:22:50;;;;;;;14.35;9.23;;;18.20;52.60;;;;;;5023286;28;20384;-59
2022/03/07 11:25:59;;;;;;;12.13;9.50;;;18.20;53.40;;;;;;5022862;28;20404;-59
2022/03/07 11:29:04;;;;;;;12.95;8.05;;;18.40;53.30;;;;;;5024458;28;20040;-60
2022/03/07 11:32:14;;;;;;;12.10;9.10;;;19.70;52.60;;;;;;5025997;28;20644;-58
2022/03/07 11:35:19;;;;;;;13.50;9.48;;;18.90;52.10;;;;;;5029992;28;20040;-59
2022/03/07 11:38:28;;;;;;;12.32;9.68;;;18.20;53.80;;;;;;5026923;28;20047;-59
2022/03/07 11:41:36;;;;;;;16.00;10.63;;;18.40;53.70;;;;;;5025916;28;20039;-60
2022/03/07 11:44:42;;;;;;;12.90;10.88;;;19.50;53.50;;;;;;5026281;28;20491;-59
2022/03/07 11:47:48;;;;;;;14.52;9.90;;;18.60;53.50;;;;;;5026417;28;20052;-58
2022/03/07 11:50:52;;;;;;;14.40;10.35;;;17.50;54.40;;;;;;5025392;28;20052;-60
2022/03/07 11:53:58;;;;;;;11.68;9.23;;;18.00;54.60;;;;;;5038731;28;20056;-59
2022/03/07 11:57:10;;;;;;;11.13;9.05;;;20.70;53.20;;;;;;5026572;28;20097;-59
2022/03/07 12:00:26;;;;;;;14.80;9.32;;;21.40;50.70;;;;;;5026269;28;20404;-59
2022/03/07 12:03:33;;;;;;;12.32;9.20;;;19.60;51.80;;;;;;5031173;28;20052;-59
2022/03/07 12:06:47;;;;;;;13.90;10.02;;;19.50;52.30;;;;;;5032048;28;20040;-60
2022/03/07 12:09:51;;;;;;;13.90;10.02;;;19.40;52.90;;;;;;5028048;28;20056;-59
2022/03/07 12:13:04;;;;;;;12.13;9.60;;;19.20;52.50;;;;;;5021283;28;20045;-60
2022/03/07 12:16:10;;;;;;;14.15;9.75;;;18.90;52.80;;;;;;5021887;28;20040;-59
2022/03/07 12:19:22;;;;;;;12.75;9.88;;;20.20;52.40;;;;;;5024988;28;20064;-59
2022/03/07 12:22:30;;;;;;;15.63;10.15;;;20.10;51.40;;;;;;5026590;28;20073;-60
2022/03/07 12:25:34;;;;;;;13.68;9.88;;;19.90;52.20;;;;;;5029801;28;20109;-59
2022/03/07 12:28:47;;;;;;;12.57;10.10;;;19.60;52.40;;;;;;5025132;28;20045;-61
2022/03/07 12:31:51;;;;;;;12.05;9.90;;;21.50;50.90;;;;;;5023142;28;20045;-59
2022/03/07 12:34:56;;;;;;;15.63;9.32;;;22.10;51.50;;;;;;5028048;28;20049;-59
2022/03/07 12:38:00;;;;;;;13.55;9.60;;;22.10;50.10;;;;;;5027897;28;20064;-59
2022/03/07 12:41:06;;;;;;;11.02;9.13;;;21.00;49.60;;;;;;5027973;28;20044;-60
2022/03/07 12:44:10;;;;;;;10.68;8.75;;;20.30;50.60;;;;;;5028741;28;20036;-59
2022/03/07 12:47:17;;;;;;;13.27;9.60;;;19.90;50.70;;;;;;5025201;28;20033;-60
2022/03/07 12:50:28;;;;;;;20.30;11.35;;;19.60;50.90;;;;;;5025240;28;20056;-58
2022/03/07 12:53:34;;;;;;;13.85;10.70;;;20.20;50.50;;;;;;5028196;28;20037;-59
2022/03/07 12:56:41;;;;;;;17.60;12.15;;;20.30;51.00;;;;;;5024595;28;20048;-59
2022/03/07 12:59:58;;;;;;;17.10;11.70;;;20.20;50.40;;;;;;5020489;28;20052;-60
2022/03/07 13:03:04;;;;;;;13.52;10.45;;;20.10;50.50;;;;;;5024404;28;20044;-59
2022/03/07 13:06:09;;;;;;;15.25;10.23;;;19.20;51.50;;;;;;5023484;28;20094;-60
2022/03/07 13:09:13;;;;;;;19.70;11.98;;;19.40;53.00;;;;;;5029090;28;20044;-60
2022/03/07 13:12:18;;;;;;;16.35;12.10;;;19.50;52.20;;;;;;5023838;28;20068;-59
2022/03/07 13:15:22;;;;;;;15.15;10.77;;;20.30;52.90;;;;;;5029522;28;20056;-59
2022/03/07 13:18:28;;;;;;;14.55;10.65;;;20.20;52.40;;;;;;5025583;28;20384;-59
2022/03/07 13:21:35;;;;;;;16.98;11.35;;;18.50;53.10;;;;;;5028176;28;20049;-60
2022/03/07 13:24:39;;;;;;;13.50;10.65;;;18.80;53.20;;;;;;5026943;28;20052;-59
2022/03/07 13:27:48;;;;;;;18.52;12.60;;;18.90;53.20;;;;;;5022455;28;20041;-59
2022/03/07 13:30:53;;;;;;;14.82;10.63;;;19.80;52.70;;;;;;5025584;28;20041;-60
2022/03/07 13:33:58;;;;;;;12.95;10.65;;;20.30;51.40;;;;;;5029853;28;20100;-59
2022/03/07 13:37:03;;;;;;;14.82;11.77;;;19.10;52.00;;;;;;5024508;28;20037;-59
2022/03/07 13:40:10;;;;;;;15.23;11.32;;;18.80;52.20;;;;;;5028775;28;20052;-59
2022/03/07 13:43:25;;;;;;;15.35;11.13;;;18.70;52.50;;;;;;5028369;28;20064;-59
2022/03/07 13:46:29;;;;;;;15.93;11.00;;;19.30;53.50;;;;;;5028968;28;20056;-60
2022/03/07 13:49:42;;;;;;;16.17;10.95;;;20.10;51.70;;;;;;5028413;28;20123;-60
2022/03/07 13:52:47;;;;;;;13.85;10.80;;;20.70;52.00;;;;;;5028589;28;20040;-60
2022/03/07 13:55:57;;;;;;;18.60;12.73;;;20.50;51.10;;;;;;5030085;28;20044;-59
2022/03/07 13:59:16;;;;;;;19.58;14.57;;;19.80;51.00;;;;;;5023018;28;20495;-59
2022/03/07 14:02:21;;;;;;;16.40;12.32;;;18.40;52.70;;;;;;5024438;28;20041;-58
2022/03/07 14:05:53;;;;;;;17.80;12.68;;;17.20;54.50;;;;;;5029122;28;20045;-59
2022/03/07 14:08:57;;;;;;;21.48;14.63;;;17.30;54.40;;;;;;5022911;28;20052;-59
2022/03/07 14:12:02;;;;;;;18.35;13.43;;;16.80;54.50;;;;;;5027151;28;20064;-60
2022/03/07 14:15:09;;;;;;;16.02;12.23;;;17.50;53.90;;;;;;5022328;28;20408;-60
2022/03/07 14:18:13;;;;;;;18.55;12.80;;;18.30;53.70;;;;;;5022437;28;20045;-60
2022/03/07 14:21:17;;;;;;;16.80;12.57;;;18.60;52.60;;;;;;5019381;28;20048;-60
2022/03/07 14:24:21;;;;;;;16.63;12.15;;;18.80;52.50;;;;;;5028664;28;20044;-60
2022/03/07 14:27:28;;;;;;;17.60;13.07;;;18.50;53.90;;;;;;5030305;28;20052;-59
2022/03/07 14:30:33;;;;;;;16.65;12.65;;;17.20;53.70;;;;;;5022458;28;20045;-58
2022/03/07 14:33:37;;;;;;;19.75;14.40;;;17.10;54.20;;;;;;5030236;28;20048;-58
2022/03/07 14:36:44;;;;;;;18.13;12.88;;;16.40;55.00;;;;;;5020385;28;20044;-59
2022/03/07 14:39:48;;;;;;;18.90;13.95;;;16.20;55.40;;;;;;5029353;28;20056;-60
2022/03/07 14:42:52;;;;;;;20.65;13.15;;;15.70;56.80;;;;;;5019474;28;20036;-59
2022/03/07 14:46:00;;;;;;;20.10;13.32;;;15.20;57.60;;;;;;5029412;28;20040;-60
2022/03/07 14:49:04;;;;;;;20.80;14.43;;;15.70;56.90;;;;;;5029355;28;20040;-59
2022/03/07 14:52:11;;;;;;;19.05;12.98;;;15.80;56.90;;;;;;5027771;28;20346;-60
2022/03/07 14:55:17;;;;;;;19.05;12.15;;;16.20;55.80;;;;;;5027255;28;20060;-61
2022/03/07 14:58:21;;;;;;;15.30;11.93;;;17.20;54.60;;;;;;5028401;28;20048;-61
2022/03/07 15:01:26;;;;;;;17.45;12.52;;;17.80;53.80;;;;;;5019757;28;20045;-61
2022/03/07 15:04:30;;;;;;;24.52;13.73;;;17.60;53.00;;;;;;5018887;28;20052;-60
2022/03/07 15:07:34;;;;;;;20.95;13.80;;;17.10;54.70;;;;;;5014825;28;20033;-60
2022/03/07 15:10:39;;;;;;;22.48;15.30;;;16.60;54.60;;;;;;5024342;28;20064;-60
2022/03/07 15:13:44;;;;;;;16.65;13.27;;;16.40;55.00;;;;;;5023681;28;20041;-61
2022/03/07 15:16:53;;;;;;;17.15;13.27;;;16.50;55.10;;;;;;5018881;28;20060;-60
2022/03/07 15:19:59;;;;;;;16.92;12.43;;;16.60;55.60;;;;;;5026924;28;20506;-60
2022/03/07 15:23:04;;;;;;;19.48;13.88;;;16.50;54.90;;;;;;5020557;28;20057;-61
2022/03/07 15:26:09;;;;;;;19.17;12.95;;;16.90;55.20;;;;;;5021235;28;20048;-60
2022/03/07 15:29:16;;;;;;;20.35;14.68;;;17.10;54.40;;;;;;5030493;28;20044;-61
2022/03/07 15:32:20;;;;;;;20.70;14.93;;;16.90;55.00;;;;;;5027038;28;20507;-61
2022/03/07 15:35:24;;;;;;;19.65;14.73;;;16.30;55.00;;;;;;5026504;28;20056;-60
2022/03/07 15:38:28;;;;;;;20.38;14.60;;;15.50;55.70;;;;;;5026726;28;20040;-60
2022/03/07 15:41:32;;;;;;;18.52;13.98;;;15.20;56.20;;;;;;5030263;28;20068;-61
2022/03/07 15:44:37;;;;;;;21.45;14.38;;;14.70;57.20;;;;;;5022430;28;20055;-61
2022/03/07 15:47:41;;;;;;;22.40;15.38;;;14.50;58.30;;;;;;5020032;28;20056;-61
2022/03/07 15:50:45;;;;;;;21.10;14.43;;;14.30;58.90;;;;;;5021916;28;20512;-61
2022/03/07 15:53:49;;;;;;;18.10;13.43;;;13.90;60.10;;;;;;5027903;28;20056;-61